Time;durP1;ratioP1;P1;durP2;ratioP2;P2;SDS_P1;SDS_P2;PMS_P1;PMS_P2;Temp;Humidity;BMP_temperature;BMP_pressure;BME280_temperature;BME280_humidity;BME280_pressure;Samples;Min_cycle;Max_cycle;Signal;HPM_P1;HPM_P2
2023/05/11 00:01:48;;;;;;;19.90;6.95;;;13.10;99.90;;;;;;5033693;28;20018;-76
2023/05/11 00:04:14;;;;;;;16.75;6.85;;;12.20;99.90;;;;;;5033636;28;20049;-76
2023/05/11 00:06:39;;;;;;;18.73;6.70;;;12.20;99.90;;;;;;5032283;28;20068;-75
2023/05/11 00:09:06;;;;;;;23.38;7.72;;;12.30;99.90;;;;;;5033457;28;20029;-76
2023/05/11 00:11:31;;;;;;;14.40;6.63;;;12.30;99.90;;;;;;5032141;28;20045;-76
2023/05/11 00:13:57;;;;;;;20.85;7.55;;;12.30;99.90;;;;;;5032110;28;20022;-76
2023/05/11 00:16:23;;;;;;;24.17;7.32;;;12.30;99.90;;;;;;5033797;28;20465;-76
2023/05/11 00:18:48;;;;;;;21.58;7.10;;;12.30;99.90;;;;;;5031959;28;20497;-76
2023/05/11 00:21:14;;;;;;;19.35;7.28;;;12.30;99.90;;;;;;5033410;28;20030;-76
2023/05/11 00:23:39;;;;;;;20.80;7.10;;;12.20;99.90;;;;;;5032067;28;20443;-76
2023/05/11 00:26:05;;;;;;;21.58;7.32;;;12.20;99.90;;;;;;5034408;28;20061;-76
2023/05/11 00:28:31;;;;;;;19.75;7.88;;;12.20;99.90;;;;;;5033229;28;20033;-76
2023/05/11 00:30:57;;;;;;;22.25;8.02;;;12.20;99.90;;;;;;5031927;28;20030;-78
2023/05/11 00:33:23;;;;;;;16.75;7.03;;;12.20;99.90;;;;;;5033162;28;20033;-76
2023/05/11 00:35:49;;;;;;;21.85;6.82;;;12.20;99.90;;;;;;5033168;28;20087;-76
2023/05/11 00:38:15;;;;;;;19.40;7.30;;;12.20;99.90;;;;;;5033084;28;20126;-76
2023/05/11 00:40:40;;;;;;;19.90;7.00;;;12.20;99.90;;;;;;5033115;28;20060;-76
2023/05/11 00:43:06;;;;;;;15.75;6.90;;;12.20;99.90;;;;;;5033110;28;20022;-76
2023/05/11 00:45:33;;;;;;;18.23;6.90;;;12.20;99.90;;;;;;5031840;28;20033;-76
2023/05/11 00:47:59;;;;;;;18.58;7.32;;;12.20;99.90;;;;;;5031665;28;20052;-76
2023/05/11 00:50:25;;;;;;;21.15;8.13;;;12.10;99.90;;;;;;5031822;28;20116;-76
2023/05/11 00:52:51;;;;;;;16.90;6.93;;;12.20;99.90;;;;;;5032878;28;20037;-76
2023/05/11 00:55:20;;;;;;;17.83;7.47;;;12.20;99.90;;;;;;5031874;28;20485;-76
2023/05/11 00:57:46;;;;;;;17.35;6.53;;;12.20;99.90;;;;;;5031896;28;20388;-76
2023/05/11 01:00:13;;;;;;;21.98;7.45;;;12.20;99.90;;;;;;5033192;28;20030;-76
2023/05/11 01:02:39;;;;;;;19.10;6.60;;;12.20;99.90;;;;;;5033099;28;20083;-76
2023/05/11 01:05:05;;;;;;;20.27;6.85;;;12.20;99.90;;;;;;5033128;28;20445;-76
2023/05/11 01:07:44;;;;;;;16.90;6.68;;;12.10;99.90;;;;;;5033105;28;20369;-76
2023/05/11 01:10:32;;;;;;;18.33;6.38;;;12.10;99.90;;;;;;5035883;28;20488;-76
2023/05/11 01:13:07;;;;;;;17.05;6.35;;;12.10;99.90;;;;;;5036884;28;20030;-76
2023/05/11 01:15:57;;;;;;;17.88;6.72;;;12.10;99.90;;;;;;5037473;28;20025;-76
2023/05/11 01:18:39;;;;;;;20.10;6.45;;;12.00;99.90;;;;;;5033653;28;20044;-76
2023/05/11 01:21:07;;;;;;;19.70;6.50;;;12.00;99.90;;;;;;5036819;28;20022;-76
2023/05/11 01:24:10;;;;;;;16.57;5.70;;;12.00;99.90;;;;;;5035433;28;20029;-75
2023/05/11 01:26:58;;;;;;;22.42;7.45;;;12.00;99.90;;;;;;5036796;28;20030;-76
2023/05/11 01:29:29;;;;;;;19.50;7.07;;;11.90;99.90;;;;;;5035254;28;20032;-76
2023/05/11 01:31:57;;;;;;;17.73;6.20;;;12.00;99.90;;;;;;5036486;28;20096;-76
2023/05/11 01:34:27;;;;;;;20.10;7.95;;;11.90;99.90;;;;;;5035271;28;20104;-76
2023/05/11 01:36:57;;;;;;;15.18;5.85;;;12.00;99.90;;;;;;5035161;28;20013;-76
2023/05/11 01:39:54;;;;;;;20.95;6.75;;;11.90;99.90;;;;;;5036521;28;20080;-76
2023/05/11 01:42:25;;;;;;;19.02;6.45;;;11.90;99.90;;;;;;5037021;28;20047;-76
2023/05/11 01:44:53;;;;;;;22.60;7.22;;;11.90;99.90;;;;;;5035137;28;20021;-76
2023/05/11 01:47:22;;;;;;;18.88;7.30;;;11.80;99.90;;;;;;5036267;28;20021;-76
2023/05/11 01:49:49;;;;;;;17.90;6.80;;;11.80;99.90;;;;;;5036241;28;20033;-76
2023/05/11 01:52:16;;;;;;;18.30;6.07;;;11.80;99.90;;;;;;5035166;28;20030;-75
2023/05/11 01:54:43;;;;;;;14.85;6.10;;;12.10;99.90;;;;;;5036695;28;20024;-76
2023/05/11 01:57:11;;;;;;;17.33;6.05;;;11.80;99.90;;;;;;5036081;28;20032;-75
2023/05/11 01:59:38;;;;;;;18.90;7.10;;;11.70;99.90;;;;;;5034731;28;20504;-76
2023/05/11 02:02:07;;;;;;;17.48;6.13;;;11.70;99.90;;;;;;5034741;28;20545;-76
2023/05/11 02:04:36;;;;;;;13.38;5.40;;;11.70;99.90;;;;;;5036118;28;20029;-76
2023/05/11 02:07:02;;;;;;;;;;;11.70;99.90;;;;;;5036294;28;20486;-76
2023/05/11 02:09:31;;;;;;;19.02;6.72;;;11.60;99.90;;;;;;5035887;28;19952;-76
2023/05/11 02:11:59;;;;;;;13.60;5.72;;;11.60;99.90;;;;;;5035738;28;20104;-75
2023/05/11 02:14:27;;;;;;;15.97;5.77;;;11.50;99.90;;;;;;5035919;28;20534;-76
2023/05/11 02:16:55;;;;;;;15.48;6.35;;;11.50;99.90;;;;;;5035913;28;20101;-76
2023/05/11 02:19:21;;;;;;;17.35;6.35;;;11.50;99.90;;;;;;5035481;28;20440;-75
2023/05/11 02:21:47;;;;;;;19.08;6.53;;;;;;;;;;5035162;28;20108;-75
2023/05/11 02:24:14;;;;;;;16.10;6.38;;;11.50;99.90;;;;;;5035620;28;20036;-76
2023/05/11 02:26:40;;;;;;;19.85;6.38;;;11.50;99.90;;;;;;5034267;28;20021;-76
2023/05/11 02:29:06;;;;;;;15.95;5.63;;;11.50;99.90;;;;;;5035331;28;20109;-76
2023/05/11 02:31:39;;;;;;;24.65;6.72;;;11.50;99.90;;;;;;5035772;28;20025;-76
2023/05/11 02:34:19;;;;;;;24.27;6.85;;;11.50;99.90;;;;;;5035340;28;20021;-76
2023/05/11 02:36:47;;;;;;;17.08;6.47;;;11.50;99.90;;;;;;5034205;28;20021;-76
2023/05/11 02:39:17;;;;;;;15.13;6.32;;;11.50;99.90;;;;;;5035367;28;20022;-75
2023/05/11 02:41:44;;;;;;;18.15;7.18;;;11.50;99.90;;;;;;5034588;28;20025;-76
2023/05/11 02:44:14;;;;;;;22.42;6.68;;;11.50;99.90;;;;;;5035277;28;20615;-76
2023/05/11 02:46:41;;;;;;;17.38;6.20;;;11.50;99.90;;;;;;5033862;28;20025;-76
2023/05/11 02:49:09;;;;;;;15.98;6.10;;;11.50;99.90;;;;;;5035065;28;20037;-76
2023/05/11 02:51:41;;;;;;;16.63;6.43;;;12.30;99.90;;;;;;5033748;28;20021;-76
2023/05/11 02:54:09;;;;;;;16.65;6.65;;;11.50;99.90;;;;;;5035019;28;20033;-75
2023/05/11 02:56:36;;;;;;;18.63;6.67;;;11.60;99.90;;;;;;5033775;28;20014;-76
2023/05/11 02:59:02;;;;;;;15.73;6.30;;;11.50;99.90;;;;;;5034996;28;20101;-76
2023/05/11 03:01:29;;;;;;;18.50;6.18;;;11.60;99.90;;;;;;5035004;28;20516;-76
2023/05/11 03:03:55;;;;;;;16.92;7.32;;;11.60;99.90;;;;;;5035005;28;20032;-76
2023/05/11 03:06:21;;;;;;;18.15;6.32;;;11.50;99.90;;;;;;5033595;28;20025;-76
2023/05/11 03:08:47;;;;;;;17.60;6.35;;;11.50;99.90;;;;;;5034864;28;20033;-76
2023/05/11 03:11:16;;;;;;;18.83;7.20;;;11.60;99.90;;;;;;5034624;28;20436;-76
2023/05/11 03:13:47;;;;;;;21.30;7.15;;;11.60;99.90;;;;;;5033258;28;20392;-76
2023/05/11 03:16:13;;;;;;;21.83;6.82;;;11.70;99.90;;;;;;5034498;28;20013;-76
2023/05/11 03:18:39;;;;;;;20.65;6.75;;;11.70;99.90;;;;;;5033301;28;20064;-76
2023/05/11 03:21:06;;;;;;;16.50;6.32;;;11.70;99.90;;;;;;5034550;28;20048;-75
2023/05/11 03:23:34;;;;;;;18.42;6.30;;;12.60;99.90;;;;;;5034541;28;20018;-75
2023/05/11 03:26:00;;;;;;;19.98;6.28;;;11.80;99.90;;;;;;5034501;28;20029;-75
2023/05/11 03:28:28;;;;;;;19.83;7.15;;;11.80;99.90;;;;;;5034137;28;20032;-75
2023/05/11 03:30:54;;;;;;;20.55;7.15;;;11.70;99.90;;;;;;5033011;28;20017;-76
2023/05/11 03:33:19;;;;;;;17.42;6.95;;;11.70;99.90;;;;;;5033443;28;20488;-76
2023/05/11 03:35:48;;;;;;;16.23;6.55;;;11.70;99.90;;;;;;5034170;28;20022;-76
2023/05/11 03:38:15;;;;;;;19.58;7.65;;;11.90;99.90;;;;;;5033010;28;20018;-76
2023/05/11 03:40:42;;;;;;;21.60;6.95;;;12.20;99.90;;;;;;5034067;28;20049;-76
2023/05/11 03:43:10;;;;;;;19.88;6.60;;;11.50;99.90;;;;;;5034052;28;20025;-76
2023/05/11 03:45:37;;;;;;;20.48;5.97;;;11.50;99.90;;;;;;5032753;28;20026;-75
2023/05/11 03:48:04;;;;;;;19.05;7.03;;;11.50;99.90;;;;;;5033879;28;20025;-75
2023/05/11 03:50:30;;;;;;;15.77;5.70;;;11.40;99.90;;;;;;5033886;28;20036;-76
2023/05/11 03:52:56;;;;;;;16.10;6.75;;;11.40;99.90;;;;;;5033861;28;20029;-76
2023/05/11 03:55:23;;;;;;;18.55;6.65;;;11.30;99.90;;;;;;5033898;28;20119;-76
2023/05/11 03:57:51;;;;;;;20.05;6.07;;;11.30;99.90;;;;;;5033843;28;20093;-76
2023/05/11 04:00:17;;;;;;;18.77;7.03;;;11.30;99.90;;;;;;5033767;28;20029;-75
2023/05/11 04:02:42;;;;;;;17.88;7.22;;;11.30;99.90;;;;;;5033699;28;20504;-75
2023/05/11 04:05:10;;;;;;;16.13;6.05;;;11.30;99.90;;;;;;5033736;28;20112;-76
2023/05/11 04:07:37;;;;;;;17.58;6.95;;;11.40;99.90;;;;;;5032398;28;20104;-75
2023/05/11 04:10:04;;;;;;;20.20;6.50;;;11.30;99.90;;;;;;5032465;28;20029;-75
2023/05/11 04:12:30;;;;;;;22.17;7.30;;;11.40;99.90;;;;;;5032318;28;20531;-76
2023/05/11 04:14:55;;;;;;;19.23;6.90;;;11.30;99.90;;;;;;5033594;28;20022;-76
2023/05/11 04:17:21;;;;;;;19.25;6.78;;;11.40;99.90;;;;;;5033515;28;20476;-75
2023/05/11 04:19:46;;;;;;;22.35;7.65;;;11.40;99.90;;;;;;5032235;28;20380;-76
2023/05/11 04:22:12;;;;;;;19.05;6.78;;;11.40;99.90;;;;;;5032262;28;20025;-75
2023/05/11 04:24:38;;;;;;;20.73;6.78;;;11.40;99.90;;;;;;5033530;28;20043;-75
2023/05/11 04:27:04;;;;;;;21.73;7.55;;;11.50;99.90;;;;;;5033475;28;20033;-76
2023/05/11 04:29:30;;;;;;;21.40;7.93;;;11.50;99.90;;;;;;5033248;28;20052;-76
2023/05/11 04:31:56;;;;;;;22.23;7.88;;;11.50;99.90;;;;;;5033179;28;20112;-75
2023/05/11 04:34:21;;;;;;;20.52;7.50;;;11.50;99.90;;;;;;5033295;28;20532;-75
2023/05/11 04:36:48;;;;;;;27.17;8.25;;;11.60;99.90;;;;;;5033537;28;20099;-76
2023/05/11 04:39:15;;;;;;;28.80;8.00;;;11.60;99.90;;;;;;5033264;28;20022;-76
2023/05/11 04:41:44;;;;;;;21.58;7.25;;;11.60;99.90;;;;;;5033132;28;20033;-75
2023/05/11 04:44:09;;;;;;;;;;;11.70;99.90;;;;;;5032077;28;20025;-76
2023/05/11 04:46:37;;;;;;;25.20;7.22;;;11.70;99.90;;;;;;5033187;28;19927;-75
2023/05/11 04:49:03;;;;;;;17.92;7.45;;;11.70;99.90;;;;;;5033103;28;20473;-75
2023/05/11 04:51:29;;;;;;;20.83;6.95;;;11.70;99.90;;;;;;5033052;28;20026;-75
2023/05/11 04:53:54;;;;;;;19.73;7.43;;;11.80;99.90;;;;;;5033287;28;20026;-75
2023/05/11 04:56:20;;;;;;;24.45;9.00;;;11.80;99.90;;;;;;5033157;28;20029;-75
2023/05/11 04:58:46;;;;;;;22.95;8.10;;;11.80;99.90;;;;;;5032996;28;20103;-75
2023/05/11 05:01:11;;;;;;;19.80;7.57;;;11.80;99.90;;;;;;5031906;28;20032;-75
2023/05/11 05:03:37;;;;;;;23.42;7.95;;;11.90;99.90;;;;;;5033637;28;20021;-76
2023/05/11 05:06:02;;;;;;;20.40;7.55;;;11.90;99.90;;;;;;5033584;28;20034;-75
2023/05/11 05:08:28;;;;;;;30.02;9.15;;;11.90;99.90;;;;;;5031624;28;20024;-76
2023/05/11 05:10:54;;;;;;;30.50;9.32;;;11.90;99.90;;;;;;5033095;28;20137;-76
2023/05/11 05:13:19;;;;;;;31.83;10.23;;;11.90;99.90;;;;;;5031715;28;20497;-75
2023/05/11 05:15:45;;;;;;;32.58;10.63;;;12.00;99.90;;;;;;5033013;28;20473;-75
2023/05/11 05:18:10;;;;;;;29.60;10.20;;;12.00;99.90;;;;;;5031653;28;20048;-75
2023/05/11 05:20:36;;;;;;;32.38;9.40;;;12.00;99.90;;;;;;5032831;28;20108;-75
2023/05/11 05:23:01;;;;;;;27.00;10.05;;;12.00;99.90;;;;;;5033437;28;20029;-75
2023/05/11 05:25:27;;;;;;;32.15;10.07;;;12.10;99.90;;;;;;5033453;28;20032;-75
2023/05/11 05:27:53;;;;;;;33.28;11.88;;;12.10;99.90;;;;;;5032914;28;20036;-75
2023/05/11 05:30:18;;;;;;;31.23;10.50;;;12.20;99.90;;;;;;5033121;28;20029;-77
2023/05/11 05:32:44;;;;;;;29.48;9.77;;;12.20;99.90;;;;;;5034369;28;20026;-77
2023/05/11 05:35:10;;;;;;;29.92;10.77;;;12.20;99.90;;;;;;5033788;28;20473;-78
2023/05/11 05:37:36;;;;;;;29.70;10.98;;;12.20;99.90;;;;;;5032907;28;20032;-78
2023/05/11 05:40:03;;;;;;;33.72;11.52;;;12.30;99.90;;;;;;5034358;28;20521;-77
2023/05/11 05:42:28;;;;;;;34.17;10.52;;;12.30;99.90;;;;;;5034498;28;20021;-78
2023/05/11 05:44:54;;;;;;;42.20;11.82;;;12.30;99.90;;;;;;5032706;28;20037;-77
2023/05/11 05:47:20;;;;;;;33.35;11.45;;;12.40;99.90;;;;;;5033715;28;20053;-78
2023/05/11 05:49:45;;;;;;;39.15;11.90;;;12.40;99.90;;;;;;5032627;28;20022;-78
2023/05/11 05:52:11;;;;;;;37.80;11.48;;;12.40;99.90;;;;;;5032382;28;20080;-77
2023/05/11 05:54:37;;;;;;;38.80;12.65;;;12.50;99.90;;;;;;5033627;28;20505;-77
2023/05/11 05:57:02;;;;;;;44.63;12.82;;;12.70;99.90;;;;;;5036092;28;20460;-76
2023/05/11 05:59:28;;;;;;;41.42;12.02;;;12.50;99.90;;;;;;5037278;28;20025;-77
2023/05/11 06:01:54;;;;;;;40.08;12.20;;;12.60;99.90;;;;;;5037482;28;20040;-77
2023/05/11 06:04:20;;;;;;;37.20;11.98;;;12.60;99.90;;;;;;5036150;28;20492;-77
2023/05/11 06:06:46;;;;;;;37.10;12.32;;;12.70;99.90;;;;;;5037687;28;20029;-78
2023/05/11 06:09:12;;;;;;;39.05;11.48;;;12.70;99.90;;;;;;5035887;28;20029;-77
2023/05/11 06:11:37;;;;;;;38.15;12.43;;;12.80;99.90;;;;;;5036161;28;20048;-78
2023/05/11 06:14:03;;;;;;;37.25;11.10;;;12.90;99.90;;;;;;5037094;28;20389;-77
2023/05/11 06:16:29;;;;;;;40.33;11.10;;;13.90;99.90;;;;;;5036882;28;20030;-76
2023/05/11 06:18:54;;;;;;;38.13;12.32;;;16.40;99.90;;;;;;5037011;28;20021;-77
2023/05/11 06:21:20;;;;;;;37.83;11.80;;;13.20;99.90;;;;;;5037254;28;20021;-78
2023/05/11 06:23:46;;;;;;;33.17;11.20;;;13.20;99.90;;;;;;5035330;28;20014;-78
2023/05/11 06:26:14;;;;;;;34.08;10.77;;;13.30;99.90;;;;;;5035406;28;20453;-77
2023/05/11 06:28:40;;;;;;;37.40;12.77;;;13.40;99.90;;;;;;5035295;28;20112;-77
2023/05/11 06:31:05;;;;;;;34.10;10.95;;;13.40;99.90;;;;;;5035515;28;20524;-77
2023/05/11 06:33:31;;;;;;;30.23;10.57;;;14.00;99.90;;;;;;5036468;28;20033;-77
2023/05/11 06:35:56;;;;;;;29.80;10.50;;;14.60;99.90;;;;;;5037325;28;20018;-77
2023/05/11 06:38:22;;;;;;;33.10;10.65;;;13.60;99.90;;;;;;5036327;28;20044;-78
2023/05/11 06:40:52;;;;;;;30.90;10.77;;;14.20;99.90;;;;;;5036546;28;20445;-76
2023/05/11 06:43:17;;;;;;;31.33;10.93;;;13.80;99.90;;;;;;5036249;28;20036;-77
2023/05/11 06:45:46;;;;;;;25.02;9.43;;;13.80;99.90;;;;;;5037087;28;20473;-78
2023/05/11 06:48:12;;;;;;;24.40;9.45;;;13.90;99.90;;;;;;5036468;28;20052;-78
2023/05/11 06:50:37;;;;;;;30.40;10.35;;;14.00;99.90;;;;;;5036922;28;20026;-76
2023/05/11 06:53:03;;;;;;;26.30;9.30;;;14.20;99.90;;;;;;5034707;28;20025;-76
2023/05/11 06:55:28;;;;;;;23.27;8.30;;;14.40;99.90;;;;;;5036183;28;20026;-77
2023/05/11 06:57:54;;;;;;;22.27;7.57;;;14.40;99.90;;;;;;5035893;28;20052;-77
2023/05/11 07:00:20;;;;;;;25.20;7.97;;;14.50;99.90;;;;;;5035895;28;20048;-77
2023/05/11 07:02:45;;;;;;;22.77;7.47;;;14.60;99.90;;;;;;5036282;28;20060;-77
2023/05/11 07:05:11;;;;;;;23.08;8.27;;;15.10;99.90;;;;;;5035784;28;20021;-78
2023/05/11 07:07:37;;;;;;;21.23;7.82;;;14.70;99.90;;;;;;5034780;28;20025;-78
2023/05/11 07:10:04;;;;;;;18.63;7.00;;;14.90;99.90;;;;;;5036079;28;20392;-77
2023/05/11 07:12:30;;;;;;;23.90;8.98;;;15.10;99.90;;;;;;5035607;28;20101;-77
2023/05/11 07:14:55;;;;;;;23.15;7.88;;;15.30;99.90;;;;;;5035878;28;20064;-78
2023/05/11 07:17:21;;;;;;;21.88;7.78;;;15.60;99.90;;;;;;5035555;28;20022;-77
2023/05/11 07:19:47;;;;;;;20.85;7.68;;;15.50;99.90;;;;;;5034333;28;20022;-77
2023/05/11 07:22:12;;;;;;;16.30;7.25;;;15.70;99.90;;;;;;5035395;28;20029;-77
2023/05/11 07:24:38;;;;;;;18.92;6.60;;;15.90;99.90;;;;;;5035324;28;20029;-77
2023/05/11 07:27:03;;;;;;;24.25;8.00;;;16.10;99.90;;;;;;5036194;28;20045;-78
2023/05/11 07:29:29;;;;;;;17.55;6.80;;;16.10;99.90;;;;;;5035095;28;20390;-78
2023/05/11 07:31:54;;;;;;;14.27;5.45;;;16.20;99.90;;;;;;5035518;28;20473;-77
2023/05/11 07:34:21;;;;;;;13.05;5.38;;;16.40;99.90;;;;;;5034274;28;20033;-78
2023/05/11 07:36:46;;;;;;;11.85;4.75;;;16.40;99.90;;;;;;5034219;28;20025;-78
2023/05/11 07:39:14;;;;;;;20.52;5.60;;;16.40;99.90;;;;;;5035537;28;20473;-78
2023/05/11 07:41:40;;;;;;;12.85;4.97;;;16.50;99.90;;;;;;5035598;28;20025;-78
2023/05/11 07:44:06;;;;;;;16.40;6.60;;;16.50;99.90;;;;;;5035669;28;20124;-78
2023/05/11 07:46:31;;;;;;;13.57;4.85;;;16.50;99.90;;;;;;5035052;28;20437;-77
2023/05/11 07:48:57;;;;;;;10.98;4.70;;;16.60;99.90;;;;;;5033850;28;20026;-77
2023/05/11 07:51:22;;;;;;;10.27;4.30;;;16.60;99.90;;;;;;5035202;28;20027;-77
2023/05/11 07:53:48;;;;;;;10.65;4.35;;;16.80;99.90;;;;;;5036315;28;20032;-79
2023/05/11 07:56:13;;;;;;;12.18;4.97;;;16.90;99.90;;;;;;5035915;28;20021;-78
2023/05/11 07:58:39;;;;;;;11.30;4.75;;;17.20;99.90;;;;;;5034985;28;20017;-78
2023/05/11 08:01:05;;;;;;;10.52;4.50;;;17.40;99.90;;;;;;5035183;28;20025;-78
2023/05/11 08:03:30;;;;;;;10.00;3.58;;;17.60;99.90;;;;;;5035076;28;20024;-78
2023/05/11 08:05:56;;;;;;;9.90;3.63;;;17.70;99.90;;;;;;5034383;28;20026;-78
2023/05/11 08:08:21;;;;;;;10.93;4.60;;;17.90;99.90;;;;;;5034258;28;20112;-78
2023/05/11 08:10:47;;;;;;;12.00;4.38;;;18.00;99.90;;;;;;5035212;28;20030;-78
2023/05/11 08:13:12;;;;;;;7.25;3.53;;;18.10;99.90;;;;;;5035789;28;20077;-79
2023/05/11 08:15:38;;;;;;;6.65;2.83;;;17.90;99.90;;;;;;5035212;28;20025;-77
2023/05/11 08:18:05;;;;;;;8.35;4.03;;;17.80;99.90;;;;;;5034713;28;20029;-78
2023/05/11 08:20:30;;;;;;;9.27;3.70;;;17.80;99.90;;;;;;5035428;28;20022;-78
2023/05/11 08:22:56;;;;;;;10.68;3.55;;;17.60;99.90;;;;;;5034971;28;20026;-78
2023/05/11 08:25:22;;;;;;;10.43;3.78;;;17.60;99.90;;;;;;5034679;28;20098;-78
2023/05/11 08:27:47;;;;;;;9.20;3.20;;;17.60;99.90;;;;;;5033780;28;20025;-78
2023/05/11 08:30:13;;;;;;;11.43;4.75;;;18.80;99.90;;;;;;5034592;28;20029;-78
2023/05/11 08:32:39;;;;;;;10.27;3.80;;;17.70;99.90;;;;;;5035503;28;20033;-79
2023/05/11 08:35:05;;;;;;;5.40;2.35;;;18.20;99.90;;;;;;5035117;28;20025;-78
2023/05/11 08:37:31;;;;;;;7.35;3.35;;;18.20;99.90;;;;;;5033699;28;20037;-78
2023/05/11 08:39:56;;;;;;;6.18;2.70;;;18.30;99.90;;;;;;5034736;28;20053;-78
2023/05/11 08:42:23;;;;;;;6.32;2.13;;;18.40;99.90;;;;;;5034854;28;20076;-78
2023/05/11 08:44:53;;;;;;;4.85;2.20;;;18.50;99.90;;;;;;5034542;28;20116;-78
2023/05/11 08:47:19;;;;;;;6.10;2.97;;;18.40;99.90;;;;;;5033590;28;20039;-78
2023/05/11 08:49:45;;;;;;;6.30;2.53;;;18.40;99.90;;;;;;5034620;28;20392;-78
2023/05/11 08:52:12;;;;;;;5.72;2.83;;;18.30;99.90;;;;;;5034442;28;20113;-78
2023/05/11 08:54:38;;;;;;;5.65;2.28;;;18.20;99.90;;;;;;5035079;28;20053;-77
2023/05/11 08:57:05;;;;;;;5.80;2.70;;;18.10;99.90;;;;;;5035380;28;20485;-78
2023/05/11 08:59:32;;;;;;;7.00;3.10;;;18.00;99.90;;;;;;5034199;28;20280;-76
2023/05/11 09:01:59;;;;;;;8.75;3.88;;;18.10;99.90;;;;;;5035034;28;20022;-78
2023/05/11 09:04:26;;;;;;;7.10;3.28;;;18.20;99.90;;;;;;5034601;28;20036;-78
2023/05/11 09:06:53;;;;;;;9.18;3.67;;;18.40;99.90;;;;;;5033124;28;20033;-78
2023/05/11 09:09:18;;;;;;;7.00;2.95;;;18.50;99.90;;;;;;5034449;28;20025;-78
2023/05/11 09:11:44;;;;;;;5.30;2.35;;;18.60;99.90;;;;;;5034334;28;20033;-79
2023/05/11 09:14:11;;;;;;;7.55;3.05;;;18.60;99.90;;;;;;5034316;28;20075;-76
2023/05/11 09:16:37;;;;;;;5.97;3.10;;;18.70;99.90;;;;;;5035030;28;20026;-78
2023/05/11 09:19:04;;;;;;;6.82;3.35;;;18.60;99.90;;;;;;5034696;28;20120;-78
2023/05/11 09:21:30;;;;;;;6.65;2.67;;;18.60;99.90;;;;;;5032493;28;20083;-78
2023/05/11 09:24:00;;;;;;;8.18;2.55;;;18.80;99.90;;;;;;5033968;28;20036;-78
2023/05/11 09:26:28;;;;;;;5.85;2.75;;;18.90;99.90;;;;;;5033968;28;20025;-78
2023/05/11 09:28:56;;;;;;;5.03;2.65;;;18.70;99.90;;;;;;5032592;28;20093;-78
2023/05/11 09:31:37;;;;;;;;;;;18.80;99.90;;;;;;5036589;28;20021;-78
2023/05/11 09:34:15;;;;;;;6.60;2.65;;;18.90;99.90;;;;;;5037440;28;20284;-78
2023/05/11 09:36:42;;;;;;;7.85;3.97;;;18.90;99.90;;;;;;5038539;28;20536;-79
2023/05/11 09:39:09;;;;;;;6.75;2.95;;;18.90;99.90;;;;;;5037751;28;20105;-78
2023/05/11 09:41:35;;;;;;;7.65;3.17;;;18.60;99.90;;;;;;5037775;28;20021;-78
2023/05/11 09:44:09;;;;;;;5.85;3.08;;;18.60;99.90;;;;;;5037568;28;20093;-78
2023/05/11 09:46:39;;;;;;;9.82;3.50;;;18.50;99.90;;;;;;5036382;28;20029;-78
2023/05/11 09:49:05;;;;;;;6.32;2.55;;;18.30;99.90;;;;;;5037407;28;20010;-78
2023/05/11 09:51:33;;;;;;;6.50;3.38;;;18.20;99.90;;;;;;5037105;28;20480;-78
2023/05/11 09:54:00;;;;;;;4.80;2.42;;;18.20;99.90;;;;;;5037843;28;20416;-78
2023/05/11 09:57:02;;;;;;;7.35;3.30;;;18.20;99.90;;;;;;5037283;28;20021;-78
2023/05/11 09:59:40;;;;;;;7.20;2.80;;;18.00;99.90;;;;;;4998970;28;20426;-78
2023/05/11 10:02:25;;;;;;;6.15;2.45;;;17.90;99.90;;;;;;5031271;28;20037;-78
2023/05/11 10:04:53;;;;;;;10.27;3.47;;;18.00;99.90;;;;;;5037093;28;20032;-78
2023/05/11 10:07:33;;;;;;;4.60;2.35;;;18.00;99.90;;;;;;5037381;28;20503;-78
2023/05/11 10:10:06;;;;;;;4.78;2.20;;;17.90;99.90;;;;;;5037199;28;20048;-78
2023/05/11 10:12:36;;;;;;;3.97;2.20;;;17.90;99.90;;;;;;5036793;28;20137;-78
2023/05/11 10:15:09;;;;;;;6.43;2.17;;;17.90;99.90;;;;;;5037852;28;20021;-78
2023/05/11 10:17:36;;;;;;;7.50;3.30;;;17.90;99.90;;;;;;5037827;28;20053;-78
2023/05/11 10:20:03;;;;;;;6.90;3.30;;;17.80;99.90;;;;;;5037510;28;20100;-79
2023/05/11 10:22:30;;;;;;;4.65;2.63;;;17.70;99.90;;;;;;5037204;28;20083;-77
2023/05/11 10:24:56;;;;;;;7.57;3.05;;;17.60;99.90;;;;;;5035454;28;20025;-78
2023/05/11 10:27:22;;;;;;;8.55;3.63;;;17.40;99.90;;;;;;5035487;28;20037;-78
2023/05/11 10:29:49;;;;;;;7.45;3.15;;;17.40;99.90;;;;;;5037347;28;20049;-78
2023/05/11 10:32:16;;;;;;;5.22;2.65;;;17.40;99.90;;;;;;5037254;28;20045;-77
2023/05/11 10:34:43;;;;;;;6.72;3.00;;;17.40;99.90;;;;;;5036724;28;20022;-77
2023/05/11 10:37:09;;;;;;;6.53;2.95;;;17.40;99.90;;;;;;5037206;28;20022;-76
2023/05/11 10:39:39;;;;;;;6.47;2.80;;;17.40;99.90;;;;;;5037223;28;20025;-77
2023/05/11 10:42:29;;;;;;;9.85;4.32;;;17.50;99.90;;;;;;5036450;28;20527;-78
2023/05/11 10:45:32;;;;;;;6.43;3.28;;;17.40;99.90;;;;;;5035221;28;20058;-78
2023/05/11 10:48:23;;;;;;;6.35;3.10;;;17.30;99.90;;;;;;5036382;28;20112;-78
2023/05/11 10:51:37;;;;;;;6.35;2.65;;;17.50;99.90;;;;;;5036523;28;20040;-77
2023/05/11 10:54:17;;;;;;;6.68;2.25;;;17.60;99.90;;;;;;5035155;28;20499;-78
2023/05/11 10:56:55;;;;;;;10.43;5.32;;;17.60;99.90;;;;;;5037827;28;20033;-78
2023/05/11 10:59:32;;;;;;;10.85;5.50;;;17.60;99.90;;;;;;5036999;28;20096;-77
2023/05/11 11:02:00;;;;;;;11.30;5.70;;;17.50;99.90;;;;;;5036874;28;20052;-77
2023/05/11 11:04:42;;;;;;;11.90;6.20;;;17.40;99.90;;;;;;5037887;28;20096;-78
2023/05/11 11:07:08;;;;;;;10.35;5.03;;;17.30;99.90;;;;;;5036834;28;20053;-78
2023/05/11 11:09:56;;;;;;;13.82;5.82;;;17.50;99.90;;;;;;5034857;28;20017;-78
2023/05/11 11:12:25;;;;;;;12.10;5.57;;;17.10;99.90;;;;;;5036198;28;20029;-78
2023/05/11 11:14:59;;;;;;;9.75;5.40;;;18.00;99.90;;;;;;5036435;28;20092;-79
2023/05/11 11:17:30;;;;;;;12.63;5.30;;;16.80;99.90;;;;;;5035608;28;20032;-78
2023/05/11 11:20:06;;;;;;;14.23;5.25;;;16.80;99.90;;;;;;5035457;28;20014;-78
2023/05/11 11:22:37;;;;;;;10.27;5.32;;;16.70;99.90;;;;;;5035185;28;20029;-78
2023/05/11 11:25:04;;;;;;;12.35;5.18;;;16.70;99.90;;;;;;5035785;28;20087;-78
2023/05/11 11:27:39;;;;;;;7.97;3.42;;;16.70;99.90;;;;;;5035930;28;20025;-76
2023/05/11 11:30:20;;;;;;;4.63;2.00;;;16.70;99.90;;;;;;5036016;28;20029;-78
2023/05/11 11:32:51;;;;;;;2.75;1.77;;;16.50;99.90;;;;;;5035999;28;20400;-78
2023/05/11 11:35:42;;;;;;;5.07;1.65;;;16.40;99.90;;;;;;5036311;28;20380;-77
2023/05/11 11:38:18;;;;;;;2.78;1.20;;;16.20;99.90;;;;;;5035061;28;20044;-79
2023/05/11 11:40:46;;;;;;;2.83;1.33;;;16.00;99.90;;;;;;5035239;28;20025;-76
2023/05/11 11:43:20;;;;;;;4.53;1.85;;;15.80;99.90;;;;;;5036325;28;20032;-79
2023/05/11 11:46:04;;;;;;;4.40;2.20;;;15.70;99.90;;;;;;5036348;28;20036;-79
2023/05/11 11:48:29;;;;;;;3.85;1.73;;;15.50;99.90;;;;;;5035252;28;20079;-76
2023/05/11 11:51:05;;;;;;;5.95;2.55;;;15.20;99.90;;;;;;5035199;28;20449;-78
2023/05/11 11:53:36;;;;;;;6.15;1.38;;;15.20;99.90;;;;;;5034213;28;20515;-78
2023/05/11 11:56:03;;;;;;;2.63;1.35;;;15.10;99.90;;;;;;5035006;28;20025;-78
2023/05/11 11:58:41;;;;;;;5.13;1.42;;;14.90;99.90;;;;;;5033796;28;20032;-78
2023/05/11 12:01:08;;;;;;;4.63;1.80;;;14.80;99.90;;;;;;5033651;28;20071;-78
2023/05/11 12:03:35;;;;;;;4.40;2.13;;;14.80;99.90;;;;;;5035042;28;20057;-78
2023/05/11 12:06:03;;;;;;;7.85;1.60;;;14.70;99.90;;;;;;5035073;28;20049;-78
2023/05/11 12:08:32;;;;;;;3.67;1.48;;;14.70;99.90;;;;;;5033484;28;20025;-78
2023/05/11 12:11:02;;;;;;;4.82;1.10;;;14.70;99.90;;;;;;5035302;28;20033;-78
2023/05/11 12:13:28;;;;;;;3.65;1.10;;;14.60;99.90;;;;;;5033457;28;20049;-78
2023/05/11 12:16:13;;;;;;;2.55;1.13;;;14.60;99.90;;;;;;5034593;28;20057;-78
2023/05/11 12:18:40;;;;;;;2.95;1.42;;;14.60;99.90;;;;;;5034444;28;20025;-78
2023/05/11 12:21:06;;;;;;;5.72;1.90;;;14.60;99.90;;;;;;5034978;28;20021;-78
2023/05/11 12:23:32;;;;;;;4.15;1.60;;;14.70;99.90;;;;;;5033346;28;20022;-78
2023/05/11 12:26:02;;;;;;;7.70;2.15;;;15.00;99.90;;;;;;5033629;28;20028;-78
2023/05/11 12:28:28;;;;;;;4.13;1.80;;;14.70;99.90;;;;;;5033321;28;20029;-78
2023/05/11 12:30:54;;;;;;;5.70;2.50;;;14.90;99.90;;;;;;5034826;28;20030;-78
2023/05/11 12:33:20;;;;;;;5.70;2.08;;;14.90;99.90;;;;;;5034688;28;20030;-78
2023/05/11 12:35:54;;;;;;;3.83;2.05;;;15.10;99.90;;;;;;5034701;28;20021;-78
2023/05/11 12:38:20;;;;;;;3.50;1.42;;;15.10;99.90;;;;;;5034757;28;20025;-78
2023/05/11 12:40:51;;;;;;;5.47;1.45;;;15.20;99.90;;;;;;5033230;28;20014;-78
2023/05/11 12:43:18;;;;;;;4.57;1.88;;;15.30;99.90;;;;;;5033301;28;20032;-78
2023/05/11 12:45:45;;;;;;;2.75;1.77;;;15.40;99.90;;;;;;5034536;28;20079;-78
2023/05/11 12:48:11;;;;;;;3.88;1.83;;;15.30;99.90;;;;;;5033962;28;20021;-78